Predator — D5NE4 — position and weather

sailwx.info

Track history (hours):
 
Tides and Currents Weather Stations Pressure Air Temp Water Temp Dewpoint Dewpoint Depression Visibility Wind Speed Wind Dir Waves Ship Positions

Predator

Last reported at 2018-Apr-19 20:06 UTC. Time now 2018-Apr-20 01:14 UTC.
Position N 31°40' E 032°04'.

Length 170 m; draft 9.3 m.

Type: Cargo ship. MMSI: 636017887.

Date/timePositionNaut miles runAvg speedWind from/ knotsBaromVisibWave heightAir tempDewpointWater temp
2018-Apr-19 20:06N 31°40' E 032°04'213.2
2018-Apr-19 19:58N 31°39' E 032°06'1113.0
2018-Apr-19 19:06N 31°32' E 032°15'1110.6
2018-Apr-19 18:03N 31°23' E 032°23'311.3
2018-Apr-19 17:48N 31°20' E 032°23'311.5
2018-Apr-19 17:30N 31°17' E 032°22'6 8.3
2018-Apr-19 16:49N 31°11' E 032°20'2 5.9
2018-Apr-19 16:30N 31°10' E 032°20'5 9.0
2018-Apr-19 15:57N 31°05' E 032°19'  
Track history (hours):
 
Tides and Currents Weather Stations Pressure Air Temp Water Temp Dewpoint Dewpoint Depression Visibility Wind Speed Wind Dir Waves Ship Positions

Predator

Last reported at 2018-Apr-19 20:06 UTC. Time now 2018-Apr-20 01:14 UTC.
Position N 31°40' E 032°04'.

Length 170 m; draft 9.3 m.

Type: Cargo ship. MMSI: 636017887.

Date/timePositionNaut miles runAvg speedWind from/ knotsBaromVisibWave heightAir tempDewpointWater temp
2018-Apr-19 20:06N 31°40' E 032°04'213.2
2018-Apr-19 19:58N 31°39' E 032°06'1113.0
2018-Apr-19 19:06N 31°32' E 032°15'1110.6
2018-Apr-19 18:03N 31°23' E 032°23'311.3
2018-Apr-19 17:48N 31°20' E 032°23'311.5
2018-Apr-19 17:30N 31°17' E 032°22'6 8.3
2018-Apr-19 16:49N 31°11' E 032°20'2 5.9
2018-Apr-19 16:30N 31°10' E 032°20'5 9.0
2018-Apr-19 15:57N 31°05' E 032°19'  

Dump ship's entire track history